sensor_id;sensor_type;location;lat;lon;timestamp;P1;durP1;ratioP1;P2;durP2;ratioP2
73315;SDS011;61545;53.726;-0.444;2023-05-07T00:01:57;15.5;;;4.9;;
73315;SDS011;61545;53.726;-0.444;2023-05-07T00:06:57;15.5;;;4.9;;
73315;SDS011;61545;53.726;-0.444;2023-05-07T00:11:56;15.1;;;5.7;;
73315;SDS011;61545;53.726;-0.444;2023-05-07T00:16:57;20.1;;;6.5;;
73315;SDS011;61545;53.726;-0.444;2023-05-07T00:21:57;20.1;;;6.4;;
73315;SDS011;61545;53.726;-0.444;2023-05-07T00:26:57;20.3;;;6;;
73315;SDS011;61545;53.726;-0.444;2023-05-07T00:31:56;20.1;;;5.9;;
73315;SDS011;61545;53.726;-0.444;2023-05-07T00:36:57;20.1;;;5.9;;
73315;SDS011;61545;53.726;-0.444;2023-05-07T00:41:57;25.8;;;6.7;;
73315;SDS011;61545;53.726;-0.444;2023-05-07T00:46:57;25.1;;;7.3;;
73315;SDS011;61545;53.726;-0.444;2023-05-07T00:51:57;31.6;;;8.6;;
73315;SDS011;61545;53.726;-0.444;2023-05-07T00:56:57;28.0;;;8.3;;
73315;SDS011;61545;53.726;-0.444;2023-05-07T01:01:57;29.1;;;9.5;;
73315;SDS011;61545;53.726;-0.444;2023-05-07T01:06:57;29.1;;;9.5;;
73315;SDS011;61545;53.726;-0.444;2023-05-07T01:11:57;23.9;;;7.8;;
73315;SDS011;61545;53.726;-0.444;2023-05-07T01:16:57;27.9;;;9.7;;
73315;SDS011;61545;53.726;-0.444;2023-05-07T01:22:01;24.5;;;8.3;;
73315;SDS011;61545;53.726;-0.444;2023-05-07T01:26:57;25.0;;;8.9;;
73315;SDS011;61545;53.726;-0.444;2023-05-07T01:31:57;29.2;;;10.2;;
73315;SDS011;61545;53.726;-0.444;2023-05-07T01:36:57;29.2;;;10.2;;
73315;SDS011;61545;53.726;-0.444;2023-05-07T01:41:57;32.1;;;10.3;;
73315;SDS011;61545;53.726;-0.444;2023-05-07T01:46:57;33.8;;;10.2;;
73315;SDS011;61545;53.726;-0.444;2023-05-07T01:51:57;19.0;;;7.9;;
73315;SDS011;61545;53.726;-0.444;2023-05-07T01:56:57;18.8;;;6.7;;
73315;SDS011;61545;53.726;-0.444;2023-05-07T02:01:57;30.3;;;10.2;;
73315;SDS011;61545;53.726;-0.444;2023-05-07T02:06:57;30.3;;;10.2;;
73315;SDS011;61545;53.726;-0.444;2023-05-07T02:11:57;20.7;;;8.4;;
73315;SDS011;61545;53.726;-0.444;2023-05-07T02:16:57;23.4;;;8.9;;
73315;SDS011;61545;53.726;-0.444;2023-05-07T02:21:57;24.5;;;10.1;;
73315;SDS011;61545;53.726;-0.444;2023-05-07T02:26:57;37.3;;;13.1;;
73315;SDS011;61545;53.726;-0.444;2023-05-07T02:31:57;26.7;;;11;;
73315;SDS011;61545;53.726;-0.444;2023-05-07T02:36:57;26.7;;;11;;
73315;SDS011;61545;53.726;-0.444;2023-05-07T02:41:57;30.7;;;12.7;;
73315;SDS011;61545;53.726;-0.444;2023-05-07T02:46:57;39.5;;;15.3;;
73315;SDS011;61545;53.726;-0.444;2023-05-07T02:51:57;33.6;;;15.1;;
73315;SDS011;61545;53.726;-0.444;2023-05-07T02:56:57;36.4;;;15.3;;
73315;SDS011;61545;53.726;-0.444;2023-05-07T03:01:57;32.5;;;14;;
73315;SDS011;61545;53.726;-0.444;2023-05-07T03:06:57;32.5;;;14;;
73315;SDS011;61545;53.726;-0.444;2023-05-07T03:11:57;32.9;;;15.5;;
73315;SDS011;61545;53.726;-0.444;2023-05-07T03:16:57;22.9;;;11.1;;
73315;SDS011;61545;53.726;-0.444;2023-05-07T03:21:57;33.3;;;16.2;;
73315;SDS011;61545;53.726;-0.444;2023-05-07T03:26:57;23.8;;;11.8;;
73315;SDS011;61545;53.726;-0.444;2023-05-07T03:31:57;22.9;;;11.6;;
73315;SDS011;61545;53.726;-0.444;2023-05-07T03:36:57;22.9;;;11.6;;
73315;SDS011;61545;53.726;-0.444;2023-05-07T03:41:57;23.9;;;12.2;;
73315;SDS011;61545;53.726;-0.444;2023-05-07T03:46:57;27.6;;;12.6;;
73315;SDS011;61545;53.726;-0.444;2023-05-07T03:51:57;30.3;;;13.6;;
73315;SDS011;61545;53.726;-0.444;2023-05-07T03:56:57;35.7;;;15.7;;
73315;SDS011;61545;53.726;-0.444;2023-05-07T04:01:57;28.8;;;13.6;;
73315;SDS011;61545;53.726;-0.444;2023-05-07T04:06:57;28.8;;;13.6;;
73315;SDS011;61545;53.726;-0.444;2023-05-07T04:11:57;38.1;;;15.7;;
73315;SDS011;61545;53.726;-0.444;2023-05-07T04:16:57;38.5;;;16.7;;
73315;SDS011;61545;53.726;-0.444;2023-05-07T04:21:57;25.8;;;12;;
73315;SDS011;61545;53.726;-0.444;2023-05-07T04:26:57;25.2;;;12.3;;
73315;SDS011;61545;53.726;-0.444;2023-05-07T04:31:57;29.8;;;14.3;;
73315;SDS011;61545;53.726;-0.444;2023-05-07T04:36:58;29.8;;;14.3;;
73315;SDS011;61545;53.726;-0.444;2023-05-07T04:41:57;25.0;;;11.4;;
73315;SDS011;61545;53.726;-0.444;2023-05-07T04:46:57;25.8;;;11.7;;
73315;SDS011;61545;53.726;-0.444;2023-05-07T04:51:57;26.2;;;12;;
73315;SDS011;61545;53.726;-0.444;2023-05-07T04:56:57;30.1;;;12.5;;
73315;SDS011;61545;53.726;-0.444;2023-05-07T05:01:57;26.6;;;12;;
73315;SDS011;61545;53.726;-0.444;2023-05-07T05:06:57;26.6;;;12;;
73315;SDS011;61545;53.726;-0.444;2023-05-07T05:11:57;31.3;;;13.2;;
73315;SDS011;61545;53.726;-0.444;2023-05-07T05:16:57;32.1;;;13.9;;
73315;SDS011;61545;53.726;-0.444;2023-05-07T05:21:57;30.9;;;13;;
73315;SDS011;61545;53.726;-0.444;2023-05-07T05:26:57;30.4;;;12.4;;
73315;SDS011;61545;53.726;-0.444;2023-05-07T05:31:57;27.9;;;12.3;;
73315;SDS011;61545;53.726;-0.444;2023-05-07T05:36:57;27.9;;;12.3;;
73315;SDS011;61545;53.726;-0.444;2023-05-07T05:41:57;31.7;;;13;;
73315;SDS011;61545;53.726;-0.444;2023-05-07T05:46:57;34.1;;;12.8;;
73315;SDS011;61545;53.726;-0.444;2023-05-07T05:51:57;29.4;;;12.3;;
73315;SDS011;61545;53.726;-0.444;2023-05-07T05:56:57;31.9;;;12.6;;
73315;SDS011;61545;53.726;-0.444;2023-05-07T06:01:57;25.4;;;11.2;;
73315;SDS011;61545;53.726;-0.444;2023-05-07T06:06:57;25.4;;;11.2;;
73315;SDS011;61545;53.726;-0.444;2023-05-07T06:11:57;29.9;;;12.2;;
73315;SDS011;61545;53.726;-0.444;2023-05-07T06:16:57;33.0;;;12.9;;
73315;SDS011;61545;53.726;-0.444;2023-05-07T06:21:57;35.8;;;12.9;;
73315;SDS011;61545;53.726;-0.444;2023-05-07T06:26:57;39.3;;;13.3;;
73315;SDS011;61545;53.726;-0.444;2023-05-07T06:31:57;31.0;;;13.3;;
73315;SDS011;61545;53.726;-0.444;2023-05-07T06:36:57;31.0;;;13.3;;
73315;SDS011;61545;53.726;-0.444;2023-05-07T06:41:57;40.1;;;14.7;;
73315;SDS011;61545;53.726;-0.444;2023-05-07T06:46:57;34.9;;;13.4;;
73315;SDS011;61545;53.726;-0.444;2023-05-07T06:51:57;33.8;;;13.8;;
73315;SDS011;61545;53.726;-0.444;2023-05-07T06:56:57;34.0;;;13.3;;
73315;SDS011;61545;53.726;-0.444;2023-05-07T07:01:57;34.0;;;13.4;;
73315;SDS011;61545;53.726;-0.444;2023-05-07T07:06:57;34.0;;;13.4;;
73315;SDS011;61545;53.726;-0.444;2023-05-07T07:11:57;31.8;;;12.5;;
73315;SDS011;61545;53.726;-0.444;2023-05-07T07:16:57;35.5;;;13.3;;
73315;SDS011;61545;53.726;-0.444;2023-05-07T07:21:57;24.9;;;10.8;;
73315;SDS011;61545;53.726;-0.444;2023-05-07T07:26:57;25.3;;;11.9;;
73315;SDS011;61545;53.726;-0.444;2023-05-07T07:31:57;18.0;;;8.5;;
73315;SDS011;61545;53.726;-0.444;2023-05-07T07:36:57;18.0;;;8.5;;
73315;SDS011;61545;53.726;-0.444;2023-05-07T07:41:57;30.5;;;12.9;;
73315;SDS011;61545;53.726;-0.444;2023-05-07T07:46:57;29.6;;;14.3;;
73315;SDS011;61545;53.726;-0.444;2023-05-07T07:51:57;33.0;;;15.3;;
73315;SDS011;61545;53.726;-0.444;2023-05-07T07:56:57;40.1;;;17.1;;
73315;SDS011;61545;53.726;-0.444;2023-05-07T08:01:57;35.3;;;15.2;;
73315;SDS011;61545;53.726;-0.444;2023-05-07T08:06:57;35.3;;;15.2;;
73315;SDS011;61545;53.726;-0.444;2023-05-07T08:11:57;26.0;;;13.4;;
73315;SDS011;61545;53.726;-0.444;2023-05-07T08:16:57;21.4;;;10.8;;
73315;SDS011;61545;53.726;-0.444;2023-05-07T08:21:57;28.2;;;13.2;;
73315;SDS011;61545;53.726;-0.444;2023-05-07T08:26:57;22.9;;;10.9;;
73315;SDS011;61545;53.726;-0.444;2023-05-07T08:31:57;24.7;;;11.8;;
73315;SDS011;61545;53.726;-0.444;2023-05-07T08:36:57;24.7;;;11.8;;
73315;SDS011;61545;53.726;-0.444;2023-05-07T08:41:57;24.5;;;13;;
73315;SDS011;61545;53.726;-0.444;2023-05-07T08:46:57;26.3;;;12.1;;
73315;SDS011;61545;53.726;-0.444;2023-05-07T08:51:57;20.4;;;9.8;;
73315;SDS011;61545;53.726;-0.444;2023-05-07T08:56:57;21.9;;;9.6;;
73315;SDS011;61545;53.726;-0.444;2023-05-07T09:01:57;25.3;;;11.5;;
73315;SDS011;61545;53.726;-0.444;2023-05-07T09:06:57;25.3;;;11.5;;
73315;SDS011;61545;53.726;-0.444;2023-05-07T09:11:57;27.0;;;12.5;;
73315;SDS011;61545;53.726;-0.444;2023-05-07T09:16:57;32.0;;;14;;
73315;SDS011;61545;53.726;-0.444;2023-05-07T09:21:58;32.7;;;14.3;;
73315;SDS011;61545;53.726;-0.444;2023-05-07T09:26:57;33.5;;;15.6;;
73315;SDS011;61545;53.726;-0.444;2023-05-07T09:31:57;27.3;;;13.8;;
73315;SDS011;61545;53.726;-0.444;2023-05-07T09:36:58;27.3;;;13.8;;
73315;SDS011;61545;53.726;-0.444;2023-05-07T09:41:57;28.6;;;12.8;;
73315;SDS011;61545;53.726;-0.444;2023-05-07T09:46:57;27.1;;;13;;
73315;SDS011;61545;53.726;-0.444;2023-05-07T09:51:57;35.9;;;14.2;;
73315;SDS011;61545;53.726;-0.444;2023-05-07T09:56:57;43.5;;;16.8;;
73315;SDS011;61545;53.726;-0.444;2023-05-07T10:01:57;40.4;;;16.4;;
73315;SDS011;61545;53.726;-0.444;2023-05-07T10:06:57;40.4;;;16.4;;
73315;SDS011;61545;53.726;-0.444;2023-05-07T10:11:57;39.5;;;16.9;;
73315;SDS011;61545;53.726;-0.444;2023-05-07T10:16:57;36.1;;;15.4;;
73315;SDS011;61545;53.726;-0.444;2023-05-07T10:22:01;35.4;;;15.5;;
73315;SDS011;61545;53.726;-0.444;2023-05-07T10:26:57;30.7;;;13.9;;
73315;SDS011;61545;53.726;-0.444;2023-05-07T10:31:59;30.2;;;12.9;;
73315;SDS011;61545;53.726;-0.444;2023-05-07T10:36:57;30.2;;;12.9;;
73315;SDS011;61545;53.726;-0.444;2023-05-07T10:41:57;25.2;;;13.1;;
73315;SDS011;61545;53.726;-0.444;2023-05-07T10:47:06;30.1;;;13.3;;
73315;SDS011;61545;53.726;-0.444;2023-05-07T10:52:11;29.7;;;14;;
73315;SDS011;61545;53.726;-0.444;2023-05-07T10:56:57;30.7;;;14.2;;
73315;SDS011;61545;53.726;-0.444;2023-05-07T11:01:57;29.8;;;14.5;;
73315;SDS011;61545;53.726;-0.444;2023-05-07T11:07:23;29.8;;;14.5;;
73315;SDS011;61545;53.726;-0.444;2023-05-07T11:11:57;28.1;;;13.5;;
73315;SDS011;61545;53.726;-0.444;2023-05-07T11:17:02;20.0;;;10.8;;
73315;SDS011;61545;53.726;-0.444;2023-05-07T11:21:57;24.3;;;10.7;;
73315;SDS011;61545;53.726;-0.444;2023-05-07T11:26:57;29.4;;;14.2;;
73315;SDS011;61545;53.726;-0.444;2023-05-07T11:31:57;26.9;;;13.5;;
73315;SDS011;61545;53.726;-0.444;2023-05-07T11:36:57;26.9;;;13.5;;
73315;SDS011;61545;53.726;-0.444;2023-05-07T11:41:57;23.6;;;12.3;;
73315;SDS011;61545;53.726;-0.444;2023-05-07T11:46:57;21.1;;;10.8;;
73315;SDS011;61545;53.726;-0.444;2023-05-07T11:51:57;19.5;;;11.3;;
73315;SDS011;61545;53.726;-0.444;2023-05-07T11:56:57;15.2;;;8.3;;
73315;SDS011;61545;53.726;-0.444;2023-05-07T12:01:57;8.3;;;5.1;;
73315;SDS011;61545;53.726;-0.444;2023-05-07T12:06:57;8.3;;;5.1;;
73315;SDS011;61545;53.726;-0.444;2023-05-07T12:11:57;8.6;;;5.2;;
73315;SDS011;61545;53.726;-0.444;2023-05-07T12:16:57;7.6;;;4.9;;
73315;SDS011;61545;53.726;-0.444;2023-05-07T12:21:57;7.1;;;5.1;;
73315;SDS011;61545;53.726;-0.444;2023-05-07T12:26:57;5.5;;;4;;
73315;SDS011;61545;53.726;-0.444;2023-05-07T12:31:57;5.2;;;3.5;;
73315;SDS011;61545;53.726;-0.444;2023-05-07T12:36:57;5.2;;;3.5;;
73315;SDS011;61545;53.726;-0.444;2023-05-07T12:41:58;6.1;;;4;;
73315;SDS011;61545;53.726;-0.444;2023-05-07T12:46:57;4.4;;;2.8;;
73315;SDS011;61545;53.726;-0.444;2023-05-07T12:51:57;4.4;;;3.2;;
73315;SDS011;61545;53.726;-0.444;2023-05-07T12:57:01;3.1;;;2.6;;
73315;SDS011;61545;53.726;-0.444;2023-05-07T13:01:57;4.0;;;3.3;;
73315;SDS011;61545;53.726;-0.444;2023-05-07T13:06:57;4.0;;;3.3;;
73315;SDS011;61545;53.726;-0.444;2023-05-07T13:11:57;3.6;;;3;;
73315;SDS011;61545;53.726;-0.444;2023-05-07T13:16:57;5.2;;;3.9;;
73315;SDS011;61545;53.726;-0.444;2023-05-07T13:21:57;4.5;;;3.8;;
73315;SDS011;61545;53.726;-0.444;2023-05-07T13:26:57;5.4;;;3.5;;
73315;SDS011;61545;53.726;-0.444;2023-05-07T13:31:57;4.2;;;3.3;;
73315;SDS011;61545;53.726;-0.444;2023-05-07T13:36:57;4.2;;;3.3;;
73315;SDS011;61545;53.726;-0.444;2023-05-07T13:41:57;3.7;;;3;;
73315;SDS011;61545;53.726;-0.444;2023-05-07T13:46:57;4.0;;;3.3;;
73315;SDS011;61545;53.726;-0.444;2023-05-07T13:51:57;4.6;;;3.4;;
73315;SDS011;61545;53.726;-0.444;2023-05-07T13:57:04;4.0;;;3.3;;
73315;SDS011;61545;53.726;-0.444;2023-05-07T14:01:57;4.5;;;3.5;;
73315;SDS011;61545;53.726;-0.444;2023-05-07T14:06:57;4.5;;;3.5;;
73315;SDS011;61545;53.726;-0.444;2023-05-07T14:11:58;5.7;;;3.6;;
73315;SDS011;61545;53.726;-0.444;2023-05-07T14:16:59;5.7;;;4;;
73315;SDS011;61545;53.726;-0.444;2023-05-07T14:22:00;4.2;;;3.4;;
73315;SDS011;61545;53.726;-0.444;2023-05-07T14:26:57;3.9;;;3;;
73315;SDS011;61545;53.726;-0.444;2023-05-07T14:36:59;4.8;;;3.5;;
73315;SDS011;61545;53.726;-0.444;2023-05-07T14:42:00;4.0;;;3;;
73315;SDS011;61545;53.726;-0.444;2023-05-07T14:46:59;3.1;;;2.5;;
73315;SDS011;61545;53.726;-0.444;2023-05-07T14:52:02;4.7;;;3.3;;
73315;SDS011;61545;53.726;-0.444;2023-05-07T14:57:04;3.2;;;2;;
73315;SDS011;61545;53.726;-0.444;2023-05-07T15:01:57;3.6;;;2.6;;
73315;SDS011;61545;53.726;-0.444;2023-05-07T15:06:59;3.6;;;2.6;;
73315;SDS011;61545;53.726;-0.444;2023-05-07T15:11:57;3.2;;;2.2;;
73315;SDS011;61545;53.726;-0.444;2023-05-07T15:16:57;3.1;;;2.4;;
73315;SDS011;61545;53.726;-0.444;2023-05-07T15:21:59;3.4;;;2.3;;
73315;SDS011;61545;53.726;-0.444;2023-05-07T15:27:02;2.4;;;2;;
73315;SDS011;61545;53.726;-0.444;2023-05-07T15:31:59;3.1;;;2.2;;
73315;SDS011;61545;53.726;-0.444;2023-05-07T15:36:57;3.1;;;2.2;;
73315;SDS011;61545;53.726;-0.444;2023-05-07T15:41:57;3.2;;;2.2;;
73315;SDS011;61545;53.726;-0.444;2023-05-07T15:47:01;2.2;;;2;;
73315;SDS011;61545;53.726;-0.444;2023-05-07T15:51:57;2.9;;;2.3;;
73315;SDS011;61545;53.726;-0.444;2023-05-07T15:57:00;2.4;;;2;;
73315;SDS011;61545;53.726;-0.444;2023-05-07T16:01:57;5.8;;;2.1;;
73315;SDS011;61545;53.726;-0.444;2023-05-07T16:06:57;5.8;;;2.1;;
73315;SDS011;61545;53.726;-0.444;2023-05-07T16:11:59;7.8;;;3.7;;
73315;SDS011;61545;53.726;-0.444;2023-05-07T16:21:57;2.4;;;2;;
73315;SDS011;61545;53.726;-0.444;2023-05-07T16:27:00;3.5;;;2.1;;
73315;SDS011;61545;53.726;-0.444;2023-05-07T16:36:57;3.3;;;2.1;;
73315;SDS011;61545;53.726;-0.444;2023-05-07T16:41:57;2.3;;;1.8;;
73315;SDS011;61545;53.726;-0.444;2023-05-07T16:46:57;2.1;;;1.9;;
73315;SDS011;61545;53.726;-0.444;2023-05-07T16:51:57;3.1;;;2.2;;
73315;SDS011;61545;53.726;-0.444;2023-05-07T16:56:58;7.0;;;4.6;;
73315;SDS011;61545;53.726;-0.444;2023-05-07T17:01:57;9.4;;;5.9;;
73315;SDS011;61545;53.726;-0.444;2023-05-07T17:11:57;13.5;;;7.9;;
73315;SDS011;61545;53.726;-0.444;2023-05-07T17:16:57;22.4;;;15.6;;
73315;SDS011;61545;53.726;-0.444;2023-05-07T17:22:00;45.7;;;28.1;;
73315;SDS011;61545;53.726;-0.444;2023-05-07T17:26:57;40.7;;;23.6;;
73315;SDS011;61545;53.726;-0.444;2023-05-07T17:31:59;38.0;;;21.5;;
73315;SDS011;61545;53.726;-0.444;2023-05-07T17:36:59;38.0;;;21.5;;
73315;SDS011;61545;53.726;-0.444;2023-05-07T17:41:57;99.7;;;59.3;;
73315;SDS011;61545;53.726;-0.444;2023-05-07T17:47:02;30.1;;;17.8;;
73315;SDS011;61545;53.726;-0.444;2023-05-07T17:52:00;27.6;;;16.2;;
73315;SDS011;61545;53.726;-0.444;2023-05-07T18:01:57;29.3;;;15.6;;
73315;SDS011;61545;53.726;-0.444;2023-05-07T18:07:02;24.1;;;14.1;;
73315;SDS011;61545;53.726;-0.444;2023-05-07T18:11:59;15.2;;;10.2;;
73315;SDS011;61545;53.726;-0.444;2023-05-07T18:17:02;14.5;;;9.4;;
73315;SDS011;61545;53.726;-0.444;2023-05-07T18:21:57;19.4;;;11;;
73315;SDS011;61545;53.726;-0.444;2023-05-07T18:32:02;26.4;;;13.2;;
73315;SDS011;61545;53.726;-0.444;2023-05-07T18:37:02;27.1;;;13.4;;
73315;SDS011;61545;53.726;-0.444;2023-05-07T18:41:59;34.9;;;15.9;;
73315;SDS011;61545;53.726;-0.444;2023-05-07T18:46:57;28.4;;;14.1;;
73315;SDS011;61545;53.726;-0.444;2023-05-07T18:56:57;14.6;;;9.2;;
73315;SDS011;61545;53.726;-0.444;2023-05-07T19:01:57;14.6;;;9.2;;
73315;SDS011;61545;53.726;-0.444;2023-05-07T19:06:57;15.4;;;8;;
73315;SDS011;61545;53.726;-0.444;2023-05-07T19:12:00;15.5;;;9;;
73315;SDS011;61545;53.726;-0.444;2023-05-07T19:16:57;14.8;;;7.2;;
73315;SDS011;61545;53.726;-0.444;2023-05-07T19:21:57;16.7;;;10;;
73315;SDS011;61545;53.726;-0.444;2023-05-07T19:26:59;16.6;;;9.5;;
73315;SDS011;61545;53.726;-0.444;2023-05-07T19:31:57;16.6;;;9.5;;
73315;SDS011;61545;53.726;-0.444;2023-05-07T19:36:57;14.9;;;8.3;;
73315;SDS011;61545;53.726;-0.444;2023-05-07T19:41:57;14.3;;;8.8;;
73315;SDS011;61545;53.726;-0.444;2023-05-07T19:46:58;14.1;;;8.3;;
73315;SDS011;61545;53.726;-0.444;2023-05-07T19:51:59;14.8;;;8.5;;
73315;SDS011;61545;53.726;-0.444;2023-05-07T19:56:57;30.9;;;11;;
73315;SDS011;61545;53.726;-0.444;2023-05-07T20:02:01;30.9;;;11;;
73315;SDS011;61545;53.726;-0.444;2023-05-07T20:06:57;20.6;;;10.1;;
73315;SDS011;61545;53.726;-0.444;2023-05-07T20:11:57;13.0;;;7.7;;
73315;SDS011;61545;53.726;-0.444;2023-05-07T20:16:57;11.9;;;8;;
73315;SDS011;61545;53.726;-0.444;2023-05-07T20:26:58;13.4;;;9.2;;
73315;SDS011;61545;53.726;-0.444;2023-05-07T20:31:59;13.4;;;9.2;;
73315;SDS011;61545;53.726;-0.444;2023-05-07T20:36:57;12.9;;;7.6;;
73315;SDS011;61545;53.726;-0.444;2023-05-07T20:41:57;12.6;;;8;;
73315;SDS011;61545;53.726;-0.444;2023-05-07T20:51:57;17.7;;;11.4;;
73315;SDS011;61545;53.726;-0.444;2023-05-07T20:56:57;13.5;;;9.4;;
73315;SDS011;61545;53.726;-0.444;2023-05-07T21:02:00;13.5;;;9.4;;
73315;SDS011;61545;53.726;-0.444;2023-05-07T21:11:59;12.8;;;8.4;;
73315;SDS011;61545;53.726;-0.444;2023-05-07T21:17:00;13.1;;;8.9;;
73315;SDS011;61545;53.726;-0.444;2023-05-07T21:27:02;14.8;;;8.3;;
73315;SDS011;61545;53.726;-0.444;2023-05-07T21:31:59;14.8;;;8.3;;
73315;SDS011;61545;53.726;-0.444;2023-05-07T21:41:57;16.3;;;9.5;;
73315;SDS011;61545;53.726;-0.444;2023-05-07T21:46:57;14.2;;;9.4;;
73315;SDS011;61545;53.726;-0.444;2023-05-07T21:56:59;14.0;;;9;;
73315;SDS011;61545;53.726;-0.444;2023-05-07T22:01:57;14.0;;;9;;
73315;SDS011;61545;53.726;-0.444;2023-05-07T22:07:01;15.2;;;9.3;;
73315;SDS011;61545;53.726;-0.444;2023-05-07T22:12:00;14.0;;;9;;
73315;SDS011;61545;53.726;-0.444;2023-05-07T22:16:57;18.0;;;9.6;;
73315;SDS011;61545;53.726;-0.444;2023-05-07T22:22:01;15.1;;;9.2;;
73315;SDS011;61545;53.726;-0.444;2023-05-07T22:26:57;12.8;;;9;;
73315;SDS011;61545;53.726;-0.444;2023-05-07T22:37:02;16.0;;;9.1;;
73315;SDS011;61545;53.726;-0.444;2023-05-07T22:41:57;13.1;;;8.4;;
73315;SDS011;61545;53.726;-0.444;2023-05-07T22:46:57;14.6;;;8.8;;
73315;SDS011;61545;53.726;-0.444;2023-05-07T22:52:02;14.5;;;9.2;;
73315;SDS011;61545;53.726;-0.444;2023-05-07T22:57:00;18.8;;;9.8;;
73315;SDS011;61545;53.726;-0.444;2023-05-07T23:06:57;17.0;;;8.6;;
73315;SDS011;61545;53.726;-0.444;2023-05-07T23:12:02;14.1;;;8.5;;
73315;SDS011;61545;53.726;-0.444;2023-05-07T23:16:57;14.5;;;8.5;;
73315;SDS011;61545;53.726;-0.444;2023-05-07T23:27:02;11.6;;;7.2;;
73315;SDS011;61545;53.726;-0.444;2023-05-07T23:32:02;11.6;;;7.2;;
73315;SDS011;61545;53.726;-0.444;2023-05-07T23:37:03;11.6;;;6.8;;
73315;SDS011;61545;53.726;-0.444;2023-05-07T23:41:57;12.2;;;6.6;;
73315;SDS011;61545;53.726;-0.444;2023-05-07T23:47:00;13.6;;;6.8;;
73315;SDS011;61545;53.726;-0.444;2023-05-07T23:51:58;10.5;;;5.7;;
73315;SDS011;61545;53.726;-0.444;2023-05-07T23:57:00;10.8;;;5.1;;
